Pitt Meadows, Canada
Current Conditions -  °F | °C
As of 11:00 PM on Saturday 22 Nov 2014 (Local Time) from CYXX Reporting Station
Broken Clouds Broken Clouds  
Wind Chill: 43°   Ceiling: 4500
Heat Index: 43°   Visibility: 15mi
Dew Point: 41°   Wind: 2mph
Humidity: 93%   Direction: NA
Pressure: 30.06"   Gusts: NA
Location:  49.23°N, 122.68°W
Report Text: CYXX 230700Z VRB02KT 15SM BKN045 BKN070 BKN220 06/05 A3006 RMK SC5AC1CI1 SLP181
Loading
Personal Weather Stations






























Interactive Weather Map New forecast layout! Learn more

10-Day Weather Forecast

Advertisements
Track Severe Weather on mobile